sensor_id;sensor_type;location;lat;lon;timestamp;P1;durP1;ratioP1;P2;durP2;ratioP2
65471;SDS011;52068;50.710;14.492;2024-03-22T00:00:28;3.53;;;1.40;;
65471;SDS011;52068;50.710;14.492;2024-03-22T00:02:53;1.60;;;1.30;;
65471;SDS011;52068;50.710;14.492;2024-03-22T00:05:19;1.58;;;1.20;;
65471;SDS011;52068;50.710;14.492;2024-03-22T00:07:46;1.60;;;1.25;;
65471;SDS011;52068;50.710;14.492;2024-03-22T00:10:12;1.83;;;1.40;;
65471;SDS011;52068;50.710;14.492;2024-03-22T00:12:38;1.77;;;1.23;;
65471;SDS011;52068;50.710;14.492;2024-03-22T00:15:03;13.05;;;1.70;;
65471;SDS011;52068;50.710;14.492;2024-03-22T00:17:29;3.92;;;1.40;;
65471;SDS011;52068;50.710;14.492;2024-03-22T00:19:55;2.70;;;1.20;;
65471;SDS011;52068;50.710;14.492;2024-03-22T00:22:21;2.47;;;1.40;;
65471;SDS011;52068;50.710;14.492;2024-03-22T00:24:46;1.75;;;1.20;;
65471;SDS011;52068;50.710;14.492;2024-03-22T00:27:12;1.52;;;1.10;;
65471;SDS011;52068;50.710;14.492;2024-03-22T00:29:37;3.17;;;1.23;;
65471;SDS011;52068;50.710;14.492;2024-03-22T00:32:03;1.92;;;1.30;;
65471;SDS011;52068;50.710;14.492;2024-03-22T00:34:29;2.97;;;2.05;;
65471;SDS011;52068;50.710;14.492;2024-03-22T00:36:54;1.50;;;1.30;;
65471;SDS011;52068;50.710;14.492;2024-03-22T00:39:20;1.40;;;1.30;;
65471;SDS011;52068;50.710;14.492;2024-03-22T00:41:45;2.80;;;1.80;;
65471;SDS011;52068;50.710;14.492;2024-03-22T00:44:11;3.25;;;2.10;;
65471;SDS011;52068;50.710;14.492;2024-03-22T00:46:36;3.58;;;1.50;;
65471;SDS011;52068;50.710;14.492;2024-03-22T00:49:01;2.10;;;1.55;;
65471;SDS011;52068;50.710;14.492;2024-03-22T00:51:27;2.40;;;1.52;;
65471;SDS011;52068;50.710;14.492;2024-03-22T00:53:53;1.23;;;1.13;;
65471;SDS011;52068;50.710;14.492;2024-03-22T00:56:18;1.98;;;1.23;;
65471;SDS011;52068;50.710;14.492;2024-03-22T00:58:44;1.80;;;1.40;;
65471;SDS011;52068;50.710;14.492;2024-03-22T01:01:09;1.20;;;1.10;;
65471;SDS011;52068;50.710;14.492;2024-03-22T01:03:35;1.20;;;1.10;;
65471;SDS011;52068;50.710;14.492;2024-03-22T01:06:01;2.55;;;1.15;;
65471;SDS011;52068;50.710;14.492;2024-03-22T01:08:26;1.40;;;1.30;;
65471;SDS011;52068;50.710;14.492;2024-03-22T01:10:52;1.20;;;1.10;;
65471;SDS011;52068;50.710;14.492;2024-03-22T01:13:18;1.27;;;1.17;;
65471;SDS011;52068;50.710;14.492;2024-03-22T01:15:44;1.38;;;1.27;;
65471;SDS011;52068;50.710;14.492;2024-03-22T01:18:11;1.45;;;1.15;;
65471;SDS011;52068;50.710;14.492;2024-03-22T01:20:36;1.35;;;1.20;;
65471;SDS011;52068;50.710;14.492;2024-03-22T01:23:02;1.15;;;1.10;;
65471;SDS011;52068;50.710;14.492;2024-03-22T01:25:27;1.48;;;1.23;;
65471;SDS011;52068;50.710;14.492;2024-03-22T01:27:53;2.10;;;1.10;;
65471;SDS011;52068;50.710;14.492;2024-03-22T01:30:18;1.15;;;1.05;;
65471;SDS011;52068;50.710;14.492;2024-03-22T01:32:44;1.40;;;1.23;;
65471;SDS011;52068;50.710;14.492;2024-03-22T01:35:09;1.30;;;1.20;;
65471;SDS011;52068;50.710;14.492;2024-03-22T01:37:35;1.52;;;1.20;;
65471;SDS011;52068;50.710;14.492;2024-03-22T01:40:00;1.30;;;1.20;;
65471;SDS011;52068;50.710;14.492;2024-03-22T01:42:26;1.92;;;1.20;;
65471;SDS011;52068;50.710;14.492;2024-03-22T01:44:51;1.23;;;1.13;;
65471;SDS011;52068;50.710;14.492;2024-03-22T01:47:16;1.52;;;1.17;;
65471;SDS011;52068;50.710;14.492;2024-03-22T01:49:42;1.38;;;1.13;;
65471;SDS011;52068;50.710;14.492;2024-03-22T01:52:08;9.35;;;1.20;;
65471;SDS011;52068;50.710;14.492;2024-03-22T01:54:34;2.22;;;1.00;;
65471;SDS011;52068;50.710;14.492;2024-03-22T01:56:59;1.33;;;1.23;;
65471;SDS011;52068;50.710;14.492;2024-03-22T01:59:26;1.25;;;1.10;;
65471;SDS011;52068;50.710;14.492;2024-03-22T02:01:53;1.08;;;1.08;;
65471;SDS011;52068;50.710;14.492;2024-03-22T02:04:18;1.23;;;1.13;;
65471;SDS011;52068;50.710;14.492;2024-03-22T02:06:44;2.08;;;1.35;;
65471;SDS011;52068;50.710;14.492;2024-03-22T02:09:09;1.63;;;1.30;;
65471;SDS011;52068;50.710;14.492;2024-03-22T02:11:35;1.33;;;1.23;;
65471;SDS011;52068;50.710;14.492;2024-03-22T02:14:02;1.63;;;1.10;;
65471;SDS011;52068;50.710;14.492;2024-03-22T02:16:28;1.95;;;1.40;;
65471;SDS011;52068;50.710;14.492;2024-03-22T02:18:53;1.20;;;1.10;;
65471;SDS011;52068;50.710;14.492;2024-03-22T02:21:19;2.47;;;1.30;;
65471;SDS011;52068;50.710;14.492;2024-03-22T02:23:44;1.23;;;1.10;;
65471;SDS011;52068;50.710;14.492;2024-03-22T02:26:09;1.85;;;1.30;;
65471;SDS011;52068;50.710;14.492;2024-03-22T02:28:35;2.63;;;1.10;;
65471;SDS011;52068;50.710;14.492;2024-03-22T02:31:01;1.73;;;1.33;;
65471;SDS011;52068;50.710;14.492;2024-03-22T02:33:28;1.40;;;1.30;;
65471;SDS011;52068;50.710;14.492;2024-03-22T02:35:53;4.03;;;1.60;;
65471;SDS011;52068;50.710;14.492;2024-03-22T02:38:19;1.55;;;1.45;;
65471;SDS011;52068;50.710;14.492;2024-03-22T02:40:44;3.47;;;1.70;;
65471;SDS011;52068;50.710;14.492;2024-03-22T02:43:13;3.50;;;1.40;;
65471;SDS011;52068;50.710;14.492;2024-03-22T02:45:39;1.45;;;1.27;;
65471;SDS011;52068;50.710;14.492;2024-03-22T02:48:05;1.40;;;1.30;;
65471;SDS011;52068;50.710;14.492;2024-03-22T02:50:34;2.08;;;1.15;;
65471;SDS011;52068;50.710;14.492;2024-03-22T02:53:01;1.35;;;1.08;;
65471;SDS011;52068;50.710;14.492;2024-03-22T02:55:26;1.25;;;1.10;;
65471;SDS011;52068;50.710;14.492;2024-03-22T02:57:52;1.65;;;1.20;;
65471;SDS011;52068;50.710;14.492;2024-03-22T03:00:17;1.10;;;1.00;;
65471;SDS011;52068;50.710;14.492;2024-03-22T03:02:43;1.30;;;1.13;;
65471;SDS011;52068;50.710;14.492;2024-03-22T03:05:09;1.05;;;1.00;;
65471;SDS011;52068;50.710;14.492;2024-03-22T03:07:35;1.30;;;1.20;;
65471;SDS011;52068;50.710;14.492;2024-03-22T03:10:00;1.50;;;1.30;;
65471;SDS011;52068;50.710;14.492;2024-03-22T03:12:26;2.20;;;1.27;;
65471;SDS011;52068;50.710;14.492;2024-03-22T03:14:51;1.48;;;1.08;;
65471;SDS011;52068;50.710;14.492;2024-03-22T03:17:16;1.40;;;1.30;;
65471;SDS011;52068;50.710;14.492;2024-03-22T03:19:42;1.92;;;1.17;;
65471;SDS011;52068;50.710;14.492;2024-03-22T03:22:07;1.65;;;1.30;;
65471;SDS011;52068;50.710;14.492;2024-03-22T03:24:33;1.50;;;1.40;;
65471;SDS011;52068;50.710;14.492;2024-03-22T03:26:58;1.60;;;1.10;;
65471;SDS011;52068;50.710;14.492;2024-03-22T03:29:23;1.20;;;1.00;;
65471;SDS011;52068;50.710;14.492;2024-03-22T03:31:49;0.90;;;0.90;;
65471;SDS011;52068;50.710;14.492;2024-03-22T03:34:14;3.28;;;1.20;;
65471;SDS011;52068;50.710;14.492;2024-03-22T03:36:40;1.77;;;1.35;;
65471;SDS011;52068;50.710;14.492;2024-03-22T03:39:06;1.42;;;1.30;;
65471;SDS011;52068;50.710;14.492;2024-03-22T03:41:31;1.73;;;1.27;;
65471;SDS011;52068;50.710;14.492;2024-03-22T03:43:56;1.20;;;1.10;;
65471;SDS011;52068;50.710;14.492;2024-03-22T03:46:22;1.33;;;1.23;;
65471;SDS011;52068;50.710;14.492;2024-03-22T03:48:48;1.48;;;1.05;;
65471;SDS011;52068;50.710;14.492;2024-03-22T03:51:13;1.70;;;1.02;;
65471;SDS011;52068;50.710;14.492;2024-03-22T03:53:39;1.42;;;1.30;;
65471;SDS011;52068;50.710;14.492;2024-03-22T03:56:04;1.35;;;1.15;;
65471;SDS011;52068;50.710;14.492;2024-03-22T03:58:29;1.20;;;1.00;;
65471;SDS011;52068;50.710;14.492;2024-03-22T04:00:55;1.17;;;1.05;;
65471;SDS011;52068;50.710;14.492;2024-03-22T04:03:20;1.02;;;1.00;;
65471;SDS011;52068;50.710;14.492;2024-03-22T04:05:45;1.20;;;1.10;;
65471;SDS011;52068;50.710;14.492;2024-03-22T04:08:11;1.20;;;1.10;;
65471;SDS011;52068;50.710;14.492;2024-03-22T04:10:36;1.30;;;1.20;;
65471;SDS011;52068;50.710;14.492;2024-03-22T04:13:02;0.90;;;0.90;;
65471;SDS011;52068;50.710;14.492;2024-03-22T04:15:27;1.50;;;1.30;;
65471;SDS011;52068;50.710;14.492;2024-03-22T04:17:54;1.38;;;1.27;;
65471;SDS011;52068;50.710;14.492;2024-03-22T04:20:21;1.50;;;1.25;;
65471;SDS011;52068;50.710;14.492;2024-03-22T04:22:46;1.23;;;1.13;;
65471;SDS011;52068;50.710;14.492;2024-03-22T04:25:14;1.35;;;1.25;;
65471;SDS011;52068;50.710;14.492;2024-03-22T04:27:40;3.22;;;1.23;;
65471;SDS011;52068;50.710;14.492;2024-03-22T04:30:05;1.48;;;1.25;;
65471;SDS011;52068;50.710;14.492;2024-03-22T04:32:31;1.30;;;1.20;;
65471;SDS011;52068;50.710;14.492;2024-03-22T04:34:57;0.85;;;0.85;;
65471;SDS011;52068;50.710;14.492;2024-03-22T04:37:22;2.50;;;1.00;;
65471;SDS011;52068;50.710;14.492;2024-03-22T04:39:48;1.30;;;1.20;;
65471;SDS011;52068;50.710;14.492;2024-03-22T04:42:14;1.15;;;1.02;;
65471;SDS011;52068;50.710;14.492;2024-03-22T04:44:40;1.30;;;1.05;;
65471;SDS011;52068;50.710;14.492;2024-03-22T04:47:06;1.15;;;1.00;;
65471;SDS011;52068;50.710;14.492;2024-03-22T04:49:32;3.92;;;1.33;;
65471;SDS011;52068;50.710;14.492;2024-03-22T04:51:57;9.15;;;1.02;;
65471;SDS011;52068;50.710;14.492;2024-03-22T04:54:22;5.03;;;0.98;;
65471;SDS011;52068;50.710;14.492;2024-03-22T04:56:48;1.55;;;1.20;;
65471;SDS011;52068;50.710;14.492;2024-03-22T04:59:13;2.67;;;1.10;;
65471;SDS011;52068;50.710;14.492;2024-03-22T05:01:39;1.48;;;0.90;;
65471;SDS011;52068;50.710;14.492;2024-03-22T05:04:04;2.42;;;1.30;;
65471;SDS011;52068;50.710;14.492;2024-03-22T05:06:29;4.88;;;1.02;;
65471;SDS011;52068;50.710;14.492;2024-03-22T05:08:55;3.03;;;1.00;;
65471;SDS011;52068;50.710;14.492;2024-03-22T05:11:20;2.47;;;1.40;;
65471;SDS011;52068;50.710;14.492;2024-03-22T05:13:46;1.35;;;1.08;;
65471;SDS011;52068;50.710;14.492;2024-03-22T05:16:11;1.73;;;1.23;;
65471;SDS011;52068;50.710;14.492;2024-03-22T05:18:37;2.20;;;1.15;;
65471;SDS011;52068;50.710;14.492;2024-03-22T05:21:03;1.17;;;1.08;;
65471;SDS011;52068;50.710;14.492;2024-03-22T05:23:28;1.25;;;0.98;;
65471;SDS011;52068;50.710;14.492;2024-03-22T05:25:54;1.98;;;1.15;;
65471;SDS011;52068;50.710;14.492;2024-03-22T05:28:19;4.78;;;1.10;;
65471;SDS011;52068;50.710;14.492;2024-03-22T05:30:44;2.33;;;1.45;;
65471;SDS011;52068;50.710;14.492;2024-03-22T05:33:10;6.97;;;1.50;;
65471;SDS011;52068;50.710;14.492;2024-03-22T05:35:36;3.45;;;1.50;;
65471;SDS011;52068;50.710;14.492;2024-03-22T05:38:01;3.10;;;1.30;;
65471;SDS011;52068;50.710;14.492;2024-03-22T05:40:27;1.20;;;1.10;;
65471;SDS011;52068;50.710;14.492;2024-03-22T05:42:52;2.10;;;1.20;;
65471;SDS011;52068;50.710;14.492;2024-03-22T05:45:17;4.70;;;1.45;;
65471;SDS011;52068;50.710;14.492;2024-03-22T05:47:43;1.52;;;1.23;;
65471;SDS011;52068;50.710;14.492;2024-03-22T05:50:08;4.20;;;1.10;;
65471;SDS011;52068;50.710;14.492;2024-03-22T05:52:34;1.70;;;1.02;;
65471;SDS011;52068;50.710;14.492;2024-03-22T05:54:59;1.80;;;1.30;;
65471;SDS011;52068;50.710;14.492;2024-03-22T05:57:25;1.35;;;1.25;;
65471;SDS011;52068;50.710;14.492;2024-03-22T05:59:51;1.40;;;1.08;;
65471;SDS011;52068;50.710;14.492;2024-03-22T06:02:19;2.72;;;1.13;;
65471;SDS011;52068;50.710;14.492;2024-03-22T06:04:44;1.90;;;1.30;;
65471;SDS011;52068;50.710;14.492;2024-03-22T06:07:10;1.20;;;1.10;;
65471;SDS011;52068;50.710;14.492;2024-03-22T06:09:35;1.58;;;1.40;;
65471;SDS011;52068;50.710;14.492;2024-03-22T06:12:19;1.38;;;1.13;;
65471;SDS011;52068;50.710;14.492;2024-03-22T06:14:44;2.15;;;1.25;;
65471;SDS011;52068;50.710;14.492;2024-03-22T06:17:10;2.10;;;1.58;;
65471;SDS011;52068;50.710;14.492;2024-03-22T06:19:36;1.88;;;1.40;;
65471;SDS011;52068;50.710;14.492;2024-03-22T06:22:02;1.77;;;1.20;;
65471;SDS011;52068;50.710;14.492;2024-03-22T06:24:28;2.08;;;1.55;;
65471;SDS011;52068;50.710;14.492;2024-03-22T06:26:53;2.33;;;1.33;;
65471;SDS011;52068;50.710;14.492;2024-03-22T06:29:19;1.30;;;1.10;;
65471;SDS011;52068;50.710;14.492;2024-03-22T06:31:44;1.35;;;1.20;;
65471;SDS011;52068;50.710;14.492;2024-03-22T06:34:10;1.35;;;1.25;;
65471;SDS011;52068;50.710;14.492;2024-03-22T06:36:35;1.25;;;1.15;;
65471;SDS011;52068;50.710;14.492;2024-03-22T06:39:01;1.90;;;1.48;;
65471;SDS011;52068;50.710;14.492;2024-03-22T06:41:28;1.95;;;1.75;;
65471;SDS011;52068;50.710;14.492;2024-03-22T06:43:53;1.90;;;1.45;;
65471;SDS011;52068;50.710;14.492;2024-03-22T06:46:19;2.33;;;1.30;;
65471;SDS011;52068;50.710;14.492;2024-03-22T06:48:45;2.42;;;1.45;;
65471;SDS011;52068;50.710;14.492;2024-03-22T06:51:11;1.33;;;1.23;;
65471;SDS011;52068;50.710;14.492;2024-03-22T06:53:37;1.48;;;1.38;;
65471;SDS011;52068;50.710;14.492;2024-03-22T06:56:02;1.85;;;1.48;;
65471;SDS011;52068;50.710;14.492;2024-03-22T06:58:28;5.07;;;1.50;;
65471;SDS011;52068;50.710;14.492;2024-03-22T07:00:53;2.03;;;1.50;;
65471;SDS011;52068;50.710;14.492;2024-03-22T07:03:19;5.20;;;1.77;;
65471;SDS011;52068;50.710;14.492;2024-03-22T07:05:44;12.77;;;1.55;;
65471;SDS011;52068;50.710;14.492;2024-03-22T07:08:12;7.57;;;1.55;;
65471;SDS011;52068;50.710;14.492;2024-03-22T07:10:40;1.88;;;1.50;;
65471;SDS011;52068;50.710;14.492;2024-03-22T07:13:06;2.40;;;1.70;;
65471;SDS011;52068;50.710;14.492;2024-03-22T07:15:31;2.90;;;1.73;;
65471;SDS011;52068;50.710;14.492;2024-03-22T07:17:57;2.50;;;1.55;;
65471;SDS011;52068;50.710;14.492;2024-03-22T07:20:23;3.15;;;1.55;;
65471;SDS011;52068;50.710;14.492;2024-03-22T07:22:49;3.03;;;1.55;;
65471;SDS011;52068;50.710;14.492;2024-03-22T07:25:14;1.80;;;1.60;;
65471;SDS011;52068;50.710;14.492;2024-03-22T07:27:39;2.85;;;1.70;;
65471;SDS011;52068;50.710;14.492;2024-03-22T07:30:05;4.63;;;1.77;;
65471;SDS011;52068;50.710;14.492;2024-03-22T07:32:31;6.88;;;2.30;;
65471;SDS011;52068;50.710;14.492;2024-03-22T07:34:57;10.90;;;2.60;;
65471;SDS011;52068;50.710;14.492;2024-03-22T07:37:22;10.27;;;2.40;;
65471;SDS011;52068;50.710;14.492;2024-03-22T07:39:48;5.63;;;2.58;;
65471;SDS011;52068;50.710;14.492;2024-03-22T07:42:14;8.15;;;2.78;;
65471;SDS011;52068;50.710;14.492;2024-03-22T07:44:39;6.95;;;2.95;;
65471;SDS011;52068;50.710;14.492;2024-03-22T07:47:05;6.03;;;2.95;;
65471;SDS011;52068;50.710;14.492;2024-03-22T07:49:30;6.72;;;3.10;;
65471;SDS011;52068;50.710;14.492;2024-03-22T07:51:56;6.30;;;2.90;;
65471;SDS011;52068;50.710;14.492;2024-03-22T07:54:22;8.50;;;3.20;;
65471;SDS011;52068;50.710;14.492;2024-03-22T07:56:47;9.63;;;2.83;;
65471;SDS011;52068;50.710;14.492;2024-03-22T07:59:13;7.50;;;3.08;;
65471;SDS011;52068;50.710;14.492;2024-03-22T08:01:38;9.10;;;2.72;;
65471;SDS011;52068;50.710;14.492;2024-03-22T08:04:04;11.95;;;2.92;;
65471;SDS011;52068;50.710;14.492;2024-03-22T08:06:29;7.82;;;3.20;;
65471;SDS011;52068;50.710;14.492;2024-03-22T08:08:55;7.47;;;2.58;;
65471;SDS011;52068;50.710;14.492;2024-03-22T08:11:20;5.40;;;2.58;;
65471;SDS011;52068;50.710;14.492;2024-03-22T08:13:45;8.35;;;2.92;;
65471;SDS011;52068;50.710;14.492;2024-03-22T08:16:11;6.28;;;2.85;;
65471;SDS011;52068;50.710;14.492;2024-03-22T08:18:37;9.32;;;3.13;;
65471;SDS011;52068;50.710;14.492;2024-03-22T08:21:03;8.50;;;2.97;;
65471;SDS011;52068;50.710;14.492;2024-03-22T08:23:29;7.88;;;2.72;;
65471;SDS011;52068;50.710;14.492;2024-03-22T08:25:54;4.97;;;2.67;;
65471;SDS011;52068;50.710;14.492;2024-03-22T08:28:20;7.53;;;2.95;;
65471;SDS011;52068;50.710;14.492;2024-03-22T08:30:45;6.78;;;2.80;;
65471;SDS011;52068;50.710;14.492;2024-03-22T08:33:11;4.88;;;2.30;;
65471;SDS011;52068;50.710;14.492;2024-03-22T08:35:36;6.50;;;2.90;;
65471;SDS011;52068;50.710;14.492;2024-03-22T08:38:02;6.18;;;2.55;;
65471;SDS011;52068;50.710;14.492;2024-03-22T08:40:29;7.57;;;2.65;;
65471;SDS011;52068;50.710;14.492;2024-03-22T08:42:54;4.85;;;2.58;;
65471;SDS011;52068;50.710;14.492;2024-03-22T08:45:20;5.95;;;2.53;;
65471;SDS011;52068;50.710;14.492;2024-03-22T08:47:45;7.05;;;2.30;;
65471;SDS011;52068;50.710;14.492;2024-03-22T08:50:11;5.53;;;2.47;;
65471;SDS011;52068;50.710;14.492;2024-03-22T08:52:37;9.40;;;2.78;;
65471;SDS011;52068;50.710;14.492;2024-03-22T08:55:03;3.65;;;2.30;;
65471;SDS011;52068;50.710;14.492;2024-03-22T08:57:31;4.22;;;2.33;;
65471;SDS011;52068;50.710;14.492;2024-03-22T08:59:56;4.07;;;2.60;;
65471;SDS011;52068;50.710;14.492;2024-03-22T09:02:21;6.30;;;2.20;;
65471;SDS011;52068;50.710;14.492;2024-03-22T09:04:47;6.22;;;2.53;;
65471;SDS011;52068;50.710;14.492;2024-03-22T09:07:12;7.10;;;2.83;;
65471;SDS011;52068;50.710;14.492;2024-03-22T09:09:38;5.32;;;2.30;;
65471;SDS011;52068;50.710;14.492;2024-03-22T09:12:03;4.35;;;2.25;;
65471;SDS011;52068;50.710;14.492;2024-03-22T09:14:29;5.40;;;2.35;;
65471;SDS011;52068;50.710;14.492;2024-03-22T09:16:54;3.30;;;2.05;;
65471;SDS011;52068;50.710;14.492;2024-03-22T09:19:19;4.28;;;2.35;;
65471;SDS011;52068;50.710;14.492;2024-03-22T09:21:45;5.47;;;2.35;;
65471;SDS011;52068;50.710;14.492;2024-03-22T09:24:10;4.07;;;2.30;;
65471;SDS011;52068;50.710;14.492;2024-03-22T09:26:35;3.88;;;2.20;;
65471;SDS011;52068;50.710;14.492;2024-03-22T09:29:01;5.53;;;2.45;;
65471;SDS011;52068;50.710;14.492;2024-03-22T09:31:26;3.63;;;2.20;;
65471;SDS011;52068;50.710;14.492;2024-03-22T09:33:52;4.95;;;2.42;;
65471;SDS011;52068;50.710;14.492;2024-03-22T09:36:18;4.60;;;2.65;;
65471;SDS011;52068;50.710;14.492;2024-03-22T09:38:43;3.83;;;2.15;;
65471;SDS011;52068;50.710;14.492;2024-03-22T09:41:08;4.57;;;2.20;;
65471;SDS011;52068;50.710;14.492;2024-03-22T09:43:34;5.72;;;2.50;;
65471;SDS011;52068;50.710;14.492;2024-03-22T09:46:00;5.47;;;2.20;;
65471;SDS011;52068;50.710;14.492;2024-03-22T09:48:26;5.95;;;2.53;;
65471;SDS011;52068;50.710;14.492;2024-03-22T09:50:53;3.35;;;2.00;;
65471;SDS011;52068;50.710;14.492;2024-03-22T09:53:20;4.65;;;2.15;;
65471;SDS011;52068;50.710;14.492;2024-03-22T09:55:47;5.15;;;2.25;;
65471;SDS011;52068;50.710;14.492;2024-03-22T09:58:14;4.32;;;2.58;;
65471;SDS011;52068;50.710;14.492;2024-03-22T10:00:41;5.13;;;2.42;;
65471;SDS011;52068;50.710;14.492;2024-03-22T10:03:07;2.83;;;2.30;;
65471;SDS011;52068;50.710;14.492;2024-03-22T10:05:34;5.55;;;2.00;;
65471;SDS011;52068;50.710;14.492;2024-03-22T10:07:59;6.25;;;2.72;;
65471;SDS011;52068;50.710;14.492;2024-03-22T10:10:25;4.13;;;1.88;;
65471;SDS011;52068;50.710;14.492;2024-03-22T10:12:50;5.07;;;2.38;;
65471;SDS011;52068;50.710;14.492;2024-03-22T10:15:18;5.30;;;2.00;;
65471;SDS011;52068;50.710;14.492;2024-03-22T10:17:43;4.20;;;2.00;;
65471;SDS011;52068;50.710;14.492;2024-03-22T10:20:12;4.97;;;2.10;;
65471;SDS011;52068;50.710;14.492;2024-03-22T10:22:42;3.55;;;2.13;;
65471;SDS011;52068;50.710;14.492;2024-03-22T10:25:08;4.47;;;2.45;;
65471;SDS011;52068;50.710;14.492;2024-03-22T10:27:34;3.13;;;2.17;;
65471;SDS011;52068;50.710;14.492;2024-03-22T10:29:59;2.47;;;1.90;;
65471;SDS011;52068;50.710;14.492;2024-03-22T10:32:25;2.30;;;1.65;;
65471;SDS011;52068;50.710;14.492;2024-03-22T10:34:50;3.90;;;1.90;;
65471;SDS011;52068;50.710;14.492;2024-03-22T10:37:16;4.65;;;1.98;;
65471;SDS011;52068;50.710;14.492;2024-03-22T10:39:42;4.07;;;2.10;;
65471;SDS011;52068;50.710;14.492;2024-03-22T10:42:08;4.75;;;1.80;;
65471;SDS011;52068;50.710;14.492;2024-03-22T10:44:33;2.45;;;1.63;;
65471;SDS011;52068;50.710;14.492;2024-03-22T10:46:59;3.88;;;1.95;;
65471;SDS011;52068;50.710;14.492;2024-03-22T10:49:26;4.05;;;2.00;;
65471;SDS011;52068;50.710;14.492;2024-03-22T10:51:57;5.28;;;1.88;;
65471;SDS011;52068;50.710;14.492;2024-03-22T10:54:26;2.47;;;1.70;;
65471;SDS011;52068;50.710;14.492;2024-03-22T10:56:57;4.53;;;2.00;;
65471;SDS011;52068;50.710;14.492;2024-03-22T10:59:23;4.55;;;1.88;;
65471;SDS011;52068;50.710;14.492;2024-03-22T11:01:49;2.80;;;1.85;;
65471;SDS011;52068;50.710;14.492;2024-03-22T11:04:19;2.72;;;1.80;;
65471;SDS011;52068;50.710;14.492;2024-03-22T11:06:48;4.25;;;2.05;;
65471;SDS011;52068;50.710;14.492;2024-03-22T11:09:23;2.67;;;1.77;;
65471;SDS011;52068;50.710;14.492;2024-03-22T11:11:54;2.67;;;1.88;;
65471;SDS011;52068;50.710;14.492;2024-03-22T11:14:21;2.35;;;1.75;;
65471;SDS011;52068;50.710;14.492;2024-03-22T11:16:48;2.05;;;1.75;;
65471;SDS011;52068;50.710;14.492;2024-03-22T11:19:13;3.22;;;1.90;;
65471;SDS011;52068;50.710;14.492;2024-03-22T11:21:39;1.77;;;1.60;;
65471;SDS011;52068;50.710;14.492;2024-03-22T11:24:05;2.83;;;1.83;;
65471;SDS011;52068;50.710;14.492;2024-03-22T11:26:31;2.17;;;1.75;;
65471;SDS011;52068;50.710;14.492;2024-03-22T11:28:57;2.97;;;1.70;;
65471;SDS011;52068;50.710;14.492;2024-03-22T11:31:23;2.33;;;1.70;;
65471;SDS011;52068;50.710;14.492;2024-03-22T11:33:52;3.22;;;1.58;;
65471;SDS011;52068;50.710;14.492;2024-03-22T11:36:18;2.72;;;1.77;;
65471;SDS011;52068;50.710;14.492;2024-03-22T11:38:44;2.80;;;1.48;;
65471;SDS011;52068;50.710;14.492;2024-03-22T11:41:09;2.35;;;1.80;;
65471;SDS011;52068;50.710;14.492;2024-03-22T11:43:35;3.05;;;1.55;;
65471;SDS011;52068;50.710;14.492;2024-03-22T11:46:01;3.13;;;1.60;;
65471;SDS011;52068;50.710;14.492;2024-03-22T11:48:26;3.25;;;1.55;;
65471;SDS011;52068;50.710;14.492;2024-03-22T11:50:52;3.92;;;1.98;;
65471;SDS011;52068;50.710;14.492;2024-03-22T11:53:17;2.92;;;2.00;;
65471;SDS011;52068;50.710;14.492;2024-03-22T11:55:43;3.80;;;2.28;;
65471;SDS011;52068;50.710;14.492;2024-03-22T11:58:11;8.05;;;3.38;;
65471;SDS011;52068;50.710;14.492;2024-03-22T12:00:37;5.05;;;4.15;;
65471;SDS011;52068;50.710;14.492;2024-03-22T12:03:04;6.30;;;4.85;;
65471;SDS011;52068;50.710;14.492;2024-03-22T12:05:31;8.63;;;4.97;;
65471;SDS011;52068;50.710;14.492;2024-03-22T12:07:56;14.45;;;6.40;;
65471;SDS011;52068;50.710;14.492;2024-03-22T12:10:22;10.45;;;6.60;;
65471;SDS011;52068;50.710;14.492;2024-03-22T12:12:47;15.45;;;7.13;;
65471;SDS011;52068;50.710;14.492;2024-03-22T12:15:12;17.17;;;7.78;;
65471;SDS011;52068;50.710;14.492;2024-03-22T12:17:38;19.42;;;8.35;;
65471;SDS011;52068;50.710;14.492;2024-03-22T12:20:05;19.40;;;9.65;;
65471;SDS011;52068;50.710;14.492;2024-03-22T12:22:33;14.82;;;8.52;;
65471;SDS011;52068;50.710;14.492;2024-03-22T12:24:59;15.50;;;8.93;;
65471;SDS011;52068;50.710;14.492;2024-03-22T12:27:24;15.40;;;8.77;;
65471;SDS011;52068;50.710;14.492;2024-03-22T12:29:50;21.17;;;9.05;;
65471;SDS011;52068;50.710;14.492;2024-03-22T12:32:15;19.42;;;8.93;;
65471;SDS011;52068;50.710;14.492;2024-03-22T12:34:41;18.65;;;8.75;;
65471;SDS011;52068;50.710;14.492;2024-03-22T12:37:06;21.58;;;10.20;;
65471;SDS011;52068;50.710;14.492;2024-03-22T12:39:32;15.57;;;8.88;;
65471;SDS011;52068;50.710;14.492;2024-03-22T12:41:57;15.38;;;8.20;;
65471;SDS011;52068;50.710;14.492;2024-03-22T12:44:23;16.02;;;8.93;;
65471;SDS011;52068;50.710;14.492;2024-03-22T12:46:48;18.63;;;9.65;;
65471;SDS011;52068;50.710;14.492;2024-03-22T12:49:16;14.65;;;8.50;;
65471;SDS011;52068;50.710;14.492;2024-03-22T12:51:41;20.35;;;7.90;;
65471;SDS011;52068;50.710;14.492;2024-03-22T12:54:07;21.90;;;8.35;;
65471;SDS011;52068;50.710;14.492;2024-03-22T12:56:35;15.23;;;8.25;;
65471;SDS011;52068;50.710;14.492;2024-03-22T12:59:01;18.75;;;8.27;;
65471;SDS011;52068;50.710;14.492;2024-03-22T13:01:27;18.77;;;8.73;;
65471;SDS011;52068;50.710;14.492;2024-03-22T13:03:52;15.55;;;7.95;;
65471;SDS011;52068;50.710;14.492;2024-03-22T13:06:18;12.05;;;7.57;;
65471;SDS011;52068;50.710;14.492;2024-03-22T13:08:44;15.85;;;7.90;;
65471;SDS011;52068;50.710;14.492;2024-03-22T13:11:09;13.65;;;7.55;;
65471;SDS011;52068;50.710;14.492;2024-03-22T13:13:36;16.92;;;7.13;;
65471;SDS011;52068;50.710;14.492;2024-03-22T13:16:01;16.20;;;7.20;;
65471;SDS011;52068;50.710;14.492;2024-03-22T13:18:28;14.52;;;7.32;;
65471;SDS011;52068;50.710;14.492;2024-03-22T13:20:54;12.75;;;6.70;;
65471;SDS011;52068;50.710;14.492;2024-03-22T13:23:19;12.82;;;6.40;;
65471;SDS011;52068;50.710;14.492;2024-03-22T13:25:45;11.20;;;6.28;;
65471;SDS011;52068;50.710;14.492;2024-03-22T13:28:10;15.32;;;6.82;;
65471;SDS011;52068;50.710;14.492;2024-03-22T13:30:35;14.27;;;6.20;;
65471;SDS011;52068;50.710;14.492;2024-03-22T13:33:02;12.13;;;6.38;;
65471;SDS011;52068;50.710;14.492;2024-03-22T13:35:29;11.55;;;5.70;;
65471;SDS011;52068;50.710;14.492;2024-03-22T13:37:55;11.57;;;5.65;;
65471;SDS011;52068;50.710;14.492;2024-03-22T13:40:20;13.10;;;5.40;;
65471;SDS011;52068;50.710;14.492;2024-03-22T13:42:46;15.90;;;6.15;;
65471;SDS011;52068;50.710;14.492;2024-03-22T13:45:11;14.70;;;5.90;;
65471;SDS011;52068;50.710;14.492;2024-03-22T13:47:37;12.48;;;5.63;;
65471;SDS011;52068;50.710;14.492;2024-03-22T13:50:05;9.27;;;4.85;;
65471;SDS011;52068;50.710;14.492;2024-03-22T13:52:33;12.40;;;4.90;;
65471;SDS011;52068;50.710;14.492;2024-03-22T13:55:00;11.15;;;5.28;;
65471;SDS011;52068;50.710;14.492;2024-03-22T13:57:26;12.70;;;4.93;;
65471;SDS011;52068;50.710;14.492;2024-03-22T13:59:51;11.82;;;4.88;;
65471;SDS011;52068;50.710;14.492;2024-03-22T14:02:17;7.60;;;4.50;;
65471;SDS011;52068;50.710;14.492;2024-03-22T14:04:44;9.48;;;4.85;;
65471;SDS011;52068;50.710;14.492;2024-03-22T14:07:09;16.30;;;4.28;;
65471;SDS011;52068;50.710;14.492;2024-03-22T14:09:34;15.80;;;4.68;;
65471;SDS011;52068;50.710;14.492;2024-03-22T14:12:01;8.23;;;4.10;;
65471;SDS011;52068;50.710;14.492;2024-03-22T14:14:26;11.45;;;4.68;;
65471;SDS011;52068;50.710;14.492;2024-03-22T14:16:52;10.13;;;4.88;;
65471;SDS011;52068;50.710;14.492;2024-03-22T14:19:18;6.55;;;4.10;;
65471;SDS011;52068;50.710;14.492;2024-03-22T14:21:44;7.60;;;3.72;;
65471;SDS011;52068;50.710;14.492;2024-03-22T14:24:11;8.27;;;4.07;;